Time;durP1;ratioP1;P1;durP2;ratioP2;P2;SDS_P1;SDS_P2;PMS_P1;PMS_P2;Temp;Humidity;BMP_temperature;BMP_pressure;BME280_temperature;BME280_humidity;BME280_pressure;Samples;Min_cycle;Max_cycle;Signal;HPM_P1;HPM_P2
2022/03/10 00:01:10;;;;;;;6.80;6.20;;;-6.20;99.90;;;;;;5105360;27;20541;-58
2022/03/10 00:03:50;;;;;;;7.25;6.75;;;-6.30;99.90;;;;;;5084677;27;20532;-58
2022/03/10 00:06:29;;;;;;;8.02;7.32;;;-6.30;99.90;;;;;;5125824;27;20849;-58
2022/03/10 00:09:09;;;;;;;8.40;7.60;;;-6.30;99.90;;;;;;5145195;27;20558;-58
2022/03/10 00:11:49;;;;;;;7.82;7.22;;;-6.30;99.90;;;;;;5146345;27;20665;-58
2022/03/10 00:14:30;;;;;;;6.45;5.78;;;-6.30;99.90;;;;;;5084457;28;20675;-58
2022/03/10 00:17:09;;;;;;;7.60;6.90;;;-6.30;99.90;;;;;;5083775;27;20535;-58
2022/03/10 00:19:48;;;;;;;7.05;6.38;;;-6.30;99.90;;;;;;5104770;27;20550;-59
2022/03/10 00:22:28;;;;;;;6.97;6.43;;;-6.30;99.90;;;;;;5125445;27;20536;-58
2022/03/10 00:25:09;;;;;;;7.07;6.45;;;-6.30;99.90;;;;;;5104639;27;20583;-58
2022/03/10 00:27:50;;;;;;;5.38;4.93;;;-6.30;99.90;;;;;;5084127;27;20551;-58
2022/03/10 00:30:30;;;;;;;6.70;5.10;;;-6.30;99.90;;;;;;5084893;28;21189;-58
2022/03/10 00:33:09;;;;;;;6.00;5.25;;;-6.30;99.90;;;;;;5084772;28;20668;-58
2022/03/10 00:35:49;;;;;;;5.60;5.05;;;-6.30;99.90;;;;;;5146137;27;20542;-58
2022/03/10 00:38:29;;;;;;;7.55;5.80;;;-6.30;99.90;;;;;;5104639;27;20697;-58
2022/03/10 00:41:10;;;;;;;8.73;5.68;;;-6.40;99.90;;;;;;5085267;27;20531;-58
2022/03/10 00:43:49;;;;;;;7.15;6.15;;;-6.40;99.90;;;;;;5079271;28;20983;-58
2022/03/10 00:46:28;;;;;;;7.32;6.50;;;-6.40;99.90;;;;;;5081614;27;20661;-58
2022/03/10 00:49:08;;;;;;;8.38;6.72;;;-6.40;99.90;;;;;;5068971;28;20682;-59
2022/03/10 00:51:50;;;;;;;7.00;6.40;;;-6.50;99.90;;;;;;5153669;27;20550;-58
2022/03/10 00:54:30;;;;;;;10.82;5.90;;;-6.50;99.90;;;;;;5124263;27;20539;-58
2022/03/10 00:57:09;;;;;;;6.55;6.00;;;-6.50;99.90;;;;;;5104804;27;20653;-58
2022/03/10 00:59:49;;;;;;;7.45;6.75;;;-6.50;99.90;;;;;;5085072;28;20687;-58
2022/03/10 01:02:31;;;;;;;8.45;6.50;;;-6.50;99.90;;;;;;5085405;27;20567;-58
2022/03/10 01:05:11;;;;;;;6.90;6.22;;;-6.50;99.90;;;;;;5084443;28;20671;-58
2022/03/10 01:07:51;;;;;;;5.97;5.47;;;-6.50;99.90;;;;;;5145405;27;20542;-58
2022/03/10 01:10:30;;;;;;;6.80;6.20;;;-6.60;99.90;;;;;;5146028;27;20534;-59
2022/03/10 01:13:14;;;;;;;6.32;5.72;;;-6.60;99.90;;;;;;5104618;27;21068;-58
2022/03/10 01:15:53;;;;;;;7.78;6.45;;;-6.70;99.90;;;;;;5125690;27;21044;-59
2022/03/10 01:18:33;;;;;;;6.90;6.30;;;-6.70;99.90;;;;;;5083918;28;20554;-59
2022/03/10 01:21:13;;;;;;;7.00;5.97;;;-6.80;99.90;;;;;;5104870;27;20591;-58
2022/03/10 01:23:52;;;;;;;6.15;5.55;;;-6.80;99.90;;;;;;5084041;28;20541;-59
2022/03/10 01:26:32;;;;;;;6.78;6.18;;;-6.80;99.90;;;;;;5105062;27;20555;-58
2022/03/10 01:29:13;;;;;;;6.40;5.82;;;-6.80;99.90;;;;;;5104098;27;20772;-58
2022/03/10 01:31:52;;;;;;;5.93;5.43;;;-6.90;99.90;;;;;;5084645;28;20547;-58
2022/03/10 01:34:32;;;;;;;6.57;5.97;;;-7.00;99.90;;;;;;5104300;27;20551;-58
2022/03/10 01:37:12;;;;;;;6.68;6.07;;;-7.00;99.90;;;;;;5145663;27;20526;-58
2022/03/10 01:39:51;;;;;;;6.70;6.20;;;-7.00;99.90;;;;;;5145837;27;20542;-58
2022/03/10 01:42:31;;;;;;;6.13;5.55;;;-7.00;99.90;;;;;;5144826;27;20550;-59
2022/03/10 01:45:12;;;;;;;6.55;5.82;;;-7.00;99.90;;;;;;5075999;28;20666;-58
2022/03/10 01:47:52;;;;;;;7.38;6.15;;;-7.00;99.90;;;;;;5096231;27;20551;-58
2022/03/10 01:50:33;;;;;;;6.82;5.75;;;-7.00;99.90;;;;;;5084394;27;20535;-59
2022/03/10 01:53:12;;;;;;;6.25;5.65;;;-7.00;99.90;;;;;;5082770;28;21063;-59
2022/03/10 01:55:52;;;;;;;6.20;5.68;;;-7.10;99.90;;;;;;5105160;27;20542;-59
2022/03/10 01:58:32;;;;;;;5.60;5.10;;;-7.10;99.90;;;;;;5124626;27;20568;-58
2022/03/10 02:01:12;;;;;;;6.38;5.57;;;-7.10;99.90;;;;;;5084574;28;20552;-58
2022/03/10 02:03:51;;;;;;;5.97;5.47;;;-7.10;99.90;;;;;;5125025;27;21301;-59
2022/03/10 02:06:32;;;;;;;5.85;5.35;;;-7.10;99.90;;;;;;5084962;28;21216;-59
2022/03/10 02:12:10;;;;;;;6.60;5.97;;;-7.20;99.90;;;;;;5125870;27;20964;-58
2022/03/10 02:18:02;;;;;;;6.45;5.90;;;-7.20;99.90;;;;;;5104239;27;21120;-58
2022/03/10 02:20:43;;;;;;;6.13;5.53;;;-7.20;99.90;;;;;;5104756;27;21004;-58
2022/03/10 02:23:23;;;;;;;5.90;5.35;;;-7.20;99.90;;;;;;5104466;27;20537;-58
2022/03/10 02:26:03;;;;;;;5.60;5.10;;;-7.20;99.90;;;;;;5084477;28;20576;-58
2022/03/10 02:28:43;;;;;;;7.65;5.72;;;-7.20;99.90;;;;;;5104658;27;20607;-59
2022/03/10 02:31:22;;;;;;;6.05;5.43;;;-7.20;99.90;;;;;;5142736;27;20675;-58
2022/03/10 02:34:02;;;;;;;5.35;4.85;;;-7.20;99.90;;;;;;5145143;27;20600;-58
2022/03/10 02:36:42;;;;;;;5.30;4.90;;;-7.20;99.90;;;;;;5125834;27;20667;-59
2022/03/10 02:39:22;;;;;;;5.18;4.70;;;-7.20;99.90;;;;;;5084327;28;20571;-58
2022/03/10 02:42:02;;;;;;;5.75;5.25;;;-7.20;99.90;;;;;;5146225;27;21047;-58
2022/03/10 02:44:42;;;;;;;5.50;5.07;;;-7.20;99.90;;;;;;5066444;28;20593;-58
2022/03/10 02:47:21;;;;;;;5.32;4.82;;;-7.20;99.90;;;;;;5074183;28;20593;-59
2022/03/10 02:50:03;;;;;;;4.93;4.53;;;-7.30;99.90;;;;;;5084574;28;20668;-58
2022/03/10 02:52:44;;;;;;;7.20;4.55;;;-7.40;99.90;;;;;;5082447;28;21100;-58
2022/03/10 02:55:24;;;;;;;4.82;4.43;;;-7.40;99.90;;;;;;5145927;27;20966;-59
2022/03/10 02:58:04;;;;;;;5.80;5.20;;;-7.30;99.90;;;;;;5124683;27;20577;-57
2022/03/10 03:00:44;;;;;;;4.93;4.53;;;-7.30;99.90;;;;;;5083843;28;21075;-58
2022/03/10 03:03:24;;;;;;;5.03;4.63;;;-7.40;99.90;;;;;;5145437;27;20530;-59
2022/03/10 03:06:03;;;;;;;5.20;4.70;;;-7.40;99.90;;;;;;5145962;27;20538;-58
2022/03/10 03:08:43;;;;;;;5.53;5.03;;;-7.40;99.90;;;;;;5103776;27;20965;-58
2022/03/10 03:11:23;;;;;;;5.07;4.68;;;-7.40;99.90;;;;;;5104659;27;20880;-59
2022/03/10 03:14:04;;;;;;;5.80;4.72;;;-7.40;99.90;;;;;;5104437;27;20546;-58
2022/03/10 03:16:44;;;;;;;6.90;4.60;;;-7.50;99.90;;;;;;5084179;28;20676;-58
2022/03/10 03:19:25;;;;;;;6.55;4.75;;;-7.50;99.90;;;;;;5104220;27;21094;-59
2022/03/10 03:22:04;;;;;;;5.20;4.80;;;-7.50;99.90;;;;;;5104901;27;20595;-58
2022/03/10 03:24:45;;;;;;;5.55;5.05;;;-7.60;99.90;;;;;;5124950;27;20532;-58
2022/03/10 03:27:24;;;;;;;5.15;4.75;;;-7.60;99.90;;;;;;5145116;27;20604;-58
2022/03/10 03:30:05;;;;;;;5.15;4.65;;;-7.70;99.90;;;;;;5125280;27;20665;-58
2022/03/10 03:32:46;;;;;;;5.63;5.13;;;-7.60;99.90;;;;;;5084418;28;20555;-59
2022/03/10 03:35:26;;;;;;;5.72;5.22;;;-7.60;99.90;;;;;;5084214;27;20552;-59
2022/03/10 03:38:06;;;;;;;5.60;4.63;;;-7.60;99.90;;;;;;5124534;27;20552;-58
2022/03/10 03:40:46;;;;;;;4.82;4.32;;;-7.60;99.90;;;;;;5125435;27;20544;-58
2022/03/10 03:43:26;;;;;;;4.60;4.18;;;-7.60;99.90;;;;;;5081861;28;20581;-59
2022/03/10 03:46:05;;;;;;;4.80;4.40;;;-7.50;99.90;;;;;;5084676;28;20605;-59
2022/03/10 03:48:46;;;;;;;5.53;4.63;;;-7.50;99.90;;;;;;5159511;27;21134;-58
2022/03/10 03:51:26;;;;;;;4.30;4.00;;;-7.60;99.90;;;;;;5118377;27;20536;-58
2022/03/10 03:54:07;;;;;;;4.68;4.28;;;-7.60;99.90;;;;;;5082208;28;20663;-59
2022/03/10 03:56:46;;;;;;;5.38;4.50;;;-7.60;99.90;;;;;;5084717;27;20565;-59
2022/03/10 03:59:26;;;;;;;4.72;4.32;;;-7.70;99.90;;;;;;5145790;27;20547;-58
2022/03/10 04:02:06;;;;;;;7.90;5.05;;;-7.70;99.90;;;;;;5146114;27;20534;-58
2022/03/10 04:04:46;;;;;;;4.82;4.43;;;-7.60;99.90;;;;;;5083849;28;20660;-58
2022/03/10 04:07:26;;;;;;;5.20;4.78;;;-7.60;99.90;;;;;;5145357;27;20542;-59
2022/03/10 04:10:08;;;;;;;4.90;4.47;;;-7.60;99.90;;;;;;5084363;27;20535;-58
2022/03/10 04:12:47;;;;;;;4.97;4.50;;;-7.60;99.90;;;;;;5146719;27;20534;-58
2022/03/10 04:15:27;;;;;;;5.32;4.82;;;-7.60;99.90;;;;;;5104994;27;20542;-59
2022/03/10 04:18:07;;;;;;;7.75;5.10;;;-7.80;99.90;;;;;;5104154;27;20557;-58
2022/03/10 04:20:48;;;;;;;5.10;4.35;;;-7.90;99.90;;;;;;5084424;27;20527;-59
2022/03/10 04:23:28;;;;;;;5.13;4.72;;;-7.90;99.90;;;;;;5083389;28;20668;-59
2022/03/10 04:26:08;;;;;;;5.85;5.00;;;-7.90;99.90;;;;;;5084429;27;20532;-58
2022/03/10 04:28:48;;;;;;;4.93;4.50;;;-7.90;99.90;;;;;;5145451;27;20925;-58
2022/03/10 04:31:28;;;;;;;5.07;4.68;;;-7.90;99.90;;;;;;5085188;28;21181;-59
2022/03/10 04:34:07;;;;;;;6.13;4.70;;;-7.90;99.90;;;;;;5085000;28;20672;-58
2022/03/10 04:36:47;;;;;;;5.47;3.85;;;-7.80;99.90;;;;;;5085279;27;20532;-58
2022/03/10 04:39:27;;;;;;;4.20;3.83;;;-7.70;99.90;;;;;;5145908;27;20546;-58
2022/03/10 04:42:07;;;;;;;5.53;5.03;;;-7.60;99.90;;;;;;5085093;28;20664;-56
2022/03/10 04:44:47;;;;;;;5.07;4.68;;;-7.60;99.90;;;;;;5083651;28;21213;-58
2022/03/10 04:47:26;;;;;;;5.85;4.00;;;-7.70;99.90;;;;;;5104217;27;20674;-58
2022/03/10 04:50:07;;;;;;;6.30;4.53;;;-7.70;99.90;;;;;;5125103;27;20652;-58
2022/03/10 04:52:46;;;;;;;5.18;4.72;;;-7.70;99.90;;;;;;5083652;28;20667;-58
2022/03/10 04:55:26;;;;;;;4.95;4.55;;;-7.70;99.90;;;;;;5085068;28;21090;-59
2022/03/10 04:58:08;;;;;;;7.97;4.18;;;-7.70;99.90;;;;;;5103653;27;20538;-58
2022/03/10 05:00:47;;;;;;;8.27;4.82;;;-7.70;99.90;;;;;;5085002;28;20970;-58
2022/03/10 05:03:27;;;;;;;5.75;5.25;;;-7.80;99.90;;;;;;5124950;27;20947;-58
2022/03/10 05:06:07;;;;;;;5.03;4.50;;;-7.80;99.90;;;;;;5144161;27;21042;-58
2022/03/10 05:08:47;;;;;;;5.30;4.82;;;-7.80;99.90;;;;;;5092121;27;20688;-59
2022/03/10 05:11:26;;;;;;;6.32;5.80;;;-7.90;99.90;;;;;;5084216;28;20675;-59
2022/03/10 05:14:06;;;;;;;6.68;5.65;;;-7.90;99.90;;;;;;5104544;27;20538;-58
2022/03/10 05:16:46;;;;;;;8.73;6.10;;;-7.90;99.90;;;;;;5084485;28;20663;-58
2022/03/10 05:19:26;;;;;;;8.80;6.13;;;-8.00;99.90;;;;;;5099144;27;21087;-58
2022/03/10 05:22:06;;;;;;;5.75;5.20;;;-8.00;99.90;;;;;;5085150;28;20676;-58
2022/03/10 05:24:46;;;;;;;5.50;4.95;;;-8.10;99.90;;;;;;5145589;27;20657;-59
2022/03/10 05:27:25;;;;;;;5.95;5.35;;;-8.00;99.90;;;;;;5104501;27;20538;-58
2022/03/10 05:30:07;;;;;;;5.95;5.40;;;-8.00;99.90;;;;;;5104712;27;20678;-59
2022/03/10 05:32:47;;;;;;;6.28;5.70;;;-8.10;99.90;;;;;;5105159;27;20654;-58
2022/03/10 05:35:29;;;;;;;6.18;5.63;;;-8.00;99.90;;;;;;5125182;27;20697;-58
2022/03/10 05:38:08;;;;;;;6.97;5.40;;;-8.00;99.90;;;;;;5083461;27;20934;-58
2022/03/10 05:40:48;;;;;;;8.25;5.53;;;-8.00;99.90;;;;;;5142847;27;20689;-58
2022/03/10 05:43:28;;;;;;;6.22;5.15;;;-8.00;99.90;;;;;;5079894;28;20687;-58
2022/03/10 05:46:07;;;;;;;5.38;4.90;;;-8.00;99.90;;;;;;5063599;28;20701;-58
2022/03/10 05:48:47;;;;;;;10.95;5.75;;;-8.00;99.90;;;;;;5083636;27;20555;-58
2022/03/10 05:51:27;;;;;;;5.88;5.28;;;-8.00;99.90;;;;;;5142931;27;20581;-58
2022/03/10 05:54:07;;;;;;;8.23;5.18;;;-7.90;99.90;;;;;;5094594;27;21167;-58
2022/03/10 05:56:47;;;;;;;7.30;4.38;;;-7.90;99.90;;;;;;5078040;28;20878;-58
2022/03/10 05:59:26;;;;;;;6.63;5.68;;;-7.80;99.90;;;;;;5074650;28;20699;-58
2022/03/10 06:02:06;;;;;;;5.38;4.88;;;-7.80;99.90;;;;;;5079137;28;20707;-58
2022/03/10 06:04:46;;;;;;;5.22;4.53;;;-7.70;99.90;;;;;;5095880;27;20593;-58
2022/03/10 06:07:26;;;;;;;5.88;4.65;;;-7.60;99.90;;;;;;5082734;28;20551;-58
2022/03/10 06:10:07;;;;;;;5.38;4.97;;;-7.60;99.90;;;;;;5124647;27;20543;-58
2022/03/10 06:12:46;;;;;;;5.57;5.07;;;-7.50;99.90;;;;;;5084584;28;20747;-58
2022/03/10 06:15:27;;;;;;;7.03;5.65;;;-7.40;99.90;;;;;;5084144;27;20573;-58
2022/03/10 06:21:56;;;;;;;5.85;5.35;;;-7.20;99.90;;;;;;5127078;27;20316;-58
2022/03/10 06:24:35;;;;;;;7.20;5.68;;;-7.00;99.90;;;;;;5147044;27;20530;-58
2022/03/10 06:27:16;;;;;;;5.85;5.25;;;-6.90;99.90;;;;;;5097820;27;20844;-58
2022/03/10 06:29:57;;;;;;;5.60;5.07;;;-6.70;99.90;;;;;;5083033;28;20672;-58
2022/03/10 06:32:36;;;;;;;7.03;5.72;;;-6.60;99.90;;;;;;5104949;27;20587;-58
2022/03/10 06:35:16;;;;;;;6.03;5.53;;;-6.40;99.90;;;;;;5120790;27;20557;-58
2022/03/10 06:37:56;;;;;;;6.68;6.07;;;-6.30;99.90;;;;;;5099315;27;20551;-58
2022/03/10 06:40:36;;;;;;;9.93;7.47;;;-6.10;99.90;;;;;;5123253;27;20864;-58
2022/03/10 06:43:18;;;;;;;9.35;7.03;;;-6.00;99.90;;;;;;5106970;27;21146;-58
2022/03/10 06:45:57;;;;;;;7.68;6.85;;;-5.80;99.90;;;;;;5125320;27;20551;-58
2022/03/10 06:48:37;;;;;;;7.43;6.78;;;-5.70;99.90;;;;;;5114769;27;20550;-58
2022/03/10 06:51:17;;;;;;;11.18;6.70;;;-5.50;99.90;;;;;;5136133;27;20558;-58
2022/03/10 06:53:57;;;;;;;7.85;7.15;;;-5.40;99.90;;;;;;5092745;27;20901;-56
2022/03/10 06:56:37;;;;;;;8.35;6.57;;;-5.20;99.90;;;;;;5134250;27;21243;-58
2022/03/10 06:59:16;;;;;;;7.53;6.82;;;-5.00;99.90;;;;;;5117818;27;20560;-58
2022/03/10 07:01:56;;;;;;;8.30;7.60;;;-4.90;99.90;;;;;;5142764;27;20546;-56
2022/03/10 07:04:36;;;;;;;7.22;6.55;;;-4.70;99.90;;;;;;5124172;27;20959;-58
2022/03/10 07:07:16;;;;;;;10.02;6.38;;;-4.60;99.90;;;;;;5125234;27;21068;-58
2022/03/10 07:09:56;;;;;;;6.80;6.15;;;-4.40;99.90;;;;;;5099053;27;20607;-58
2022/03/10 07:12:37;;;;;;;8.45;6.80;;;-4.20;99.90;;;;;;5140588;27;20551;-56
2022/03/10 07:15:17;;;;;;;9.60;6.47;;;-4.00;99.90;;;;;;5119710;27;20609;-58
2022/03/10 07:17:57;;;;;;;6.95;6.40;;;-3.90;99.90;;;;;;5140135;27;20568;-58
2022/03/10 07:20:36;;;;;;;7.03;5.72;;;-3.70;99.90;;;;;;5139711;27;20824;-58
2022/03/10 07:23:16;;;;;;;6.68;6.07;;;-3.50;99.90;;;;;;5140263;27;20530;-58
2022/03/10 07:25:56;;;;;;;6.90;5.97;;;-3.40;99.90;;;;;;5143514;27;20883;-57
2022/03/10 07:28:36;;;;;;;8.02;6.45;;;-3.30;99.90;;;;;;5079776;27;20971;-58
2022/03/10 07:31:16;;;;;;;7.53;6.80;;;-3.20;99.90;;;;;;5122242;27;21073;-58
2022/03/10 07:33:56;;;;;;;7.35;6.38;;;-3.10;99.90;;;;;;5146747;27;20538;-58
2022/03/10 07:36:35;;;;;;;8.95;6.40;;;-3.00;99.90;;;;;;5141051;27;20679;-58
2022/03/10 07:39:15;;;;;;;6.68;6.13;;;-2.90;99.90;;;;;;5162231;27;20557;-58
2022/03/10 07:41:55;;;;;;;10.50;6.68;;;-2.80;99.90;;;;;;5142925;27;20562;-58
2022/03/10 07:44:35;;;;;;;7.78;6.25;;;-2.80;99.90;;;;;;5084835;22;20610;-57
2022/03/10 07:47:15;;;;;;;7.03;6.32;;;-2.60;99.90;;;;;;5140944;27;20566;-58
2022/03/10 07:49:55;;;;;;;7.45;6.68;;;-2.50;99.90;;;;;;5066959;28;20714;-57
2022/03/10 07:52:35;;;;;;;7.50;6.80;;;-2.30;99.90;;;;;;5082727;27;20531;-57
2022/03/10 07:55:14;;;;;;;8.73;7.45;;;-2.10;99.90;;;;;;5082194;28;21056;-57
2022/03/10 07:57:54;;;;;;;8.95;7.00;;;-2.00;99.90;;;;;;5122238;27;20555;-57
2022/03/10 08:00:34;;;;;;;7.82;7.03;;;-1.90;99.90;;;;;;5102092;27;20578;-57
2022/03/10 08:03:14;;;;;;;7.82;7.10;;;-1.70;99.90;;;;;;5074730;27;20705;-57
2022/03/10 08:05:54;;;;;;;7.85;7.15;;;-1.60;99.90;;;;;;5066831;28;20693;-57
2022/03/10 08:08:34;;;;;;;11.35;7.35;;;-1.40;99.90;;;;;;5078083;28;20609;-57
2022/03/10 08:11:13;;;;;;;10.63;9.13;;;-1.30;99.90;;;;;;5080538;27;20563;-57
2022/03/10 08:13:54;;;;;;;10.57;8.05;;;-1.20;99.90;;;;;;5131442;27;20571;-57
2022/03/10 08:16:33;;;;;;;9.05;7.95;;;-1.00;99.90;;;;;;5082943;28;20561;-57
2022/03/10 08:19:13;;;;;;;9.15;8.15;;;-0.80;99.90;;;;;;5102460;27;20689;-58
2022/03/10 08:21:52;;;;;;;10.27;8.95;;;-0.70;99.90;;;;;;5116983;27;21371;-57
2022/03/10 08:24:32;;;;;;;11.18;9.77;;;-0.50;99.90;;;;;;5045906;27;20594;-57
2022/03/10 08:27:13;;;;;;;11.93;8.98;;;-0.40;99.90;;;;;;5079207;28;20672;-57
2022/03/10 08:29:52;;;;;;;11.43;8.82;;;-0.20;99.90;;;;;;5077565;27;20605;-57
2022/03/10 08:32:32;;;;;;;11.55;9.60;;;-0.10;99.90;;;;;;5099365;27;20546;-57
2022/03/10 08:35:12;;;;;;;13.90;8.48;;;-0.10;99.90;;;;;;5096065;27;21061;-57
2022/03/10 08:37:52;;;;;;;10.30;8.57;;;0.00;99.90;;;;;;5097179;27;20709;-57
2022/03/10 08:40:31;;;;;;;9.98;8.65;;;0.10;99.90;;;;;;5076561;27;20555;-57
2022/03/10 08:43:12;;;;;;;10.15;9.23;;;0.10;99.90;;;;;;5151150;27;20552;-57
2022/03/10 08:45:53;;;;;;;13.85;9.43;;;0.20;99.90;;;;;;5101812;27;21265;-57
2022/03/10 08:48:34;;;;;;;9.50;8.50;;;0.40;99.90;;;;;;5068470;22;20583;-59
2022/03/10 08:51:14;;;;;;;9.68;8.88;;;0.60;99.90;;;;;;5076426;27;20547;-60
2022/03/10 08:53:54;;;;;;;11.30;9.93;;;0.80;99.90;;;;;;5112571;27;20666;-59
2022/03/10 08:56:34;;;;;;;10.73;9.73;;;1.00;99.90;;;;;;5083768;28;20675;-59
2022/03/10 08:59:13;;;;;;;12.68;11.57;;;1.30;99.90;;;;;;5145838;27;21281;-59
2022/03/10 09:01:53;;;;;;;10.15;9.25;;;1.70;99.90;;;;;;5119618;27;20457;-59
2022/03/10 09:04:33;;;;;;;9.20;8.38;;;1.90;99.90;;;;;;5103501;27;20530;-59
2022/03/10 09:07:13;;;;;;;10.05;9.25;;;2.10;99.90;;;;;;5146072;27;20858;-59
2022/03/10 09:09:53;;;;;;;10.65;9.65;;;2.30;99.90;;;;;;5083862;28;20684;-59
2022/03/10 09:12:32;;;;;;;8.57;7.45;;;2.40;99.90;;;;;;5123973;27;20544;-59
2022/03/10 09:15:12;;;;;;;6.18;5.68;;;2.70;99.90;;;;;;5083990;27;20667;-59
2022/03/10 09:17:52;;;;;;;6.95;6.35;;;3.20;99.90;;;;;;5084762;28;20555;-59
2022/03/10 09:20:32;;;;;;;6.07;5.53;;;3.60;99.90;;;;;;5083768;27;20531;-59
2022/03/10 09:23:12;;;;;;;5.75;5.25;;;4.10;99.90;;;;;;5146316;27;20954;-59
2022/03/10 09:25:52;;;;;;;8.82;5.32;;;4.50;99.90;;;;;;5125749;27;20872;-59
2022/03/10 09:28:31;;;;;;;5.70;4.72;;;4.80;99.90;;;;;;5084885;27;21108;-59
2022/03/10 09:31:12;;;;;;;6.07;5.47;;;5.00;99.90;;;;;;5084087;27;20543;-58
2022/03/10 09:33:51;;;;;;;5.55;5.05;;;5.10;99.90;;;;;;5145388;27;20543;-59
2022/03/10 09:36:31;;;;;;;10.82;5.85;;;5.30;99.90;;;;;;5104982;27;20529;-59
2022/03/10 09:39:11;;;;;;;6.60;6.00;;;5.40;99.90;;;;;;5084532;28;21201;-59
2022/03/10 09:41:51;;;;;;;5.75;5.25;;;5.40;99.90;;;;;;5084621;28;20652;-59
2022/03/10 09:44:33;;;;;;;5.95;5.45;;;5.60;99.90;;;;;;5104515;27;20541;-59
2022/03/10 09:47:14;;;;;;;8.32;7.57;;;5.70;99.90;;;;;;5105199;27;20570;-59
2022/03/10 09:49:53;;;;;;;11.48;8.90;;;5.80;99.90;;;;;;5165848;27;20682;-59
2022/03/10 09:52:33;;;;;;;6.15;5.55;;;5.80;99.90;;;;;;5125064;27;20525;-59
2022/03/10 09:55:16;;;;;;;6.90;6.30;;;5.80;99.90;;;;;;5125128;27;21008;-59
2022/03/10 09:57:57;;;;;;;7.28;6.57;;;6.00;99.90;;;;;;5084822;27;20575;-59
2022/03/10 10:00:36;;;;;;;5.43;4.97;;;6.00;99.90;;;;;;5124728;27;20604;-59
2022/03/10 10:03:16;;;;;;;6.70;6.10;;;6.00;99.90;;;;;;5104746;27;20568;-59
2022/03/10 10:06:00;;;;;;;7.35;6.65;;;6.10;99.90;;;;;;5145876;27;20551;-59
2022/03/10 10:08:41;;;;;;;5.10;4.70;;;6.20;99.90;;;;;;5083833;27;20593;-59
2022/03/10 10:11:31;;;;;;;5.47;5.03;;;6.30;99.90;;;;;;5082129;27;20600;-59
2022/03/10 10:14:11;;;;;;;8.30;5.38;;;6.40;99.90;;;;;;5145273;27;20677;-59
2022/03/10 10:16:51;;;;;;;5.50;5.10;;;6.60;99.90;;;;;;5125040;27;20537;-59
2022/03/10 10:19:33;;;;;;;4.93;4.53;;;6.60;99.90;;;;;;5145166;27;20917;-59
2022/03/10 10:22:16;;;;;;;5.82;4.93;;;6.80;99.90;;;;;;5146031;27;20949;-59
2022/03/10 10:24:59;;;;;;;5.05;4.55;;;6.80;99.90;;;;;;5145277;27;20531;-59
2022/03/10 10:27:39;;;;;;;5.00;4.60;;;6.90;99.90;;;;;;5085036;27;20848;-58
2022/03/10 10:30:19;;;;;;;4.75;4.35;;;7.00;99.90;;;;;;5145191;27;20546;-59
2022/03/10 10:32:59;;;;;;;4.97;4.47;;;7.10;99.90;;;;;;5105800;27;20542;-59
2022/03/10 10:35:40;;;;;;;4.32;3.92;;;7.10;99.90;;;;;;5146168;27;20653;-58
2022/03/10 10:38:32;;;;;;;4.93;4.40;;;7.20;99.90;;;;;;5105098;27;20701;-59
2022/03/10 10:41:24;;;;;;;5.43;5.03;;;7.20;99.90;;;;;;5145474;27;20542;-59
2022/03/10 10:44:06;;;;;;;4.38;3.97;;;7.30;99.90;;;;;;5084314;28;20840;-59
2022/03/10 10:46:48;;;;;;;6.38;4.10;;;7.30;99.40;;;;;;5084787;28;20679;-59
2022/03/10 10:49:28;;;;;;;4.07;3.78;;;7.40;97.80;;;;;;5104540;27;20985;-59
2022/03/10 10:52:11;;;;;;;4.20;3.78;;;7.50;92.80;;;;;;5125872;27;20545;-59
2022/03/10 10:55:04;;;;;;;3.80;3.50;;;7.50;94.90;;;;;;5084515;28;21006;-59
2022/03/10 10:57:44;;;;;;;4.32;4.03;;;7.60;94.40;;;;;;5105546;27;20658;-59
2022/03/10 11:00:25;;;;;;;4.20;3.80;;;7.60;92.50;;;;;;5083749;27;20543;-59
2022/03/10 11:03:20;;;;;;;4.40;4.00;;;7.70;91.30;;;;;;5125737;27;20532;-59
2022/03/10 11:06:00;;;;;;;4.50;4.20;;;7.70;92.10;;;;;;5105680;27;20564;-59
2022/03/10 11:08:40;;;;;;;5.18;4.45;;;7.90;91.80;;;;;;5105032;27;20615;-57
2022/03/10 11:11:19;;;;;;;6.45;4.55;;;7.80;92.50;;;;;;5082295;28;21022;-59
2022/03/10 11:14:01;;;;;;;4.53;4.22;;;7.90;91.80;;;;;;5083996;27;20551;-59
2022/03/10 11:16:43;;;;;;;8.25;5.07;;;7.90;93.10;;;;;;5146680;27;20539;-58
2022/03/10 11:19:25;;;;;;;5.90;5.07;;;8.00;93.20;;;;;;5083484;27;21152;-59
2022/03/10 11:22:14;;;;;;;4.72;4.32;;;8.10;91.90;;;;;;5145827;27;20542;-59
2022/03/10 11:25:17;;;;;;;4.80;4.40;;;8.10;91.00;;;;;;5124743;27;21089;-59
2022/03/10 11:28:00;;;;;;;4.43;3.88;;;8.10;87.80;;;;;;5125465;27;20675;-59
2022/03/10 11:30:40;;;;;;;5.15;4.28;;;8.10;87.00;;;;;;5122961;27;20561;-59
2022/03/10 11:33:19;;;;;;;4.90;4.47;;;8.20;83.10;;;;;;5146485;27;21220;-59
2022/03/10 11:35:59;;;;;;;4.15;3.55;;;8.20;80.40;;;;;;5083912;27;20540;-59
2022/03/10 11:38:53;;;;;;;5.28;4.50;;;8.30;75.10;;;;;;5124924;27;20675;-59
2022/03/10 11:41:44;;;;;;;5.07;4.50;;;8.30;77.90;;;;;;5125191;27;20532;-59
2022/03/10 11:44:38;;;;;;;5.03;4.60;;;8.30;79.80;;;;;;5104370;27;21107;-59
2022/03/10 11:47:19;;;;;;;4.35;3.97;;;8.30;76.10;;;;;;5146603;27;20650;-59
2022/03/10 11:49:58;;;;;;;5.68;4.53;;;8.30;76.80;;;;;;5104119;27;20661;-59
2022/03/10 11:52:42;;;;;;;4.15;3.85;;;8.40;70.00;;;;;;5104812;27;20534;-59
2022/03/10 11:55:22;;;;;;;5.53;4.93;;;8.40;73.40;;;;;;5141543;27;20428;-58
2022/03/10 11:58:05;;;;;;;4.07;3.78;;;8.40;83.10;;;;;;5092424;27;20555;-58
2022/03/10 12:00:50;;;;;;;3.83;3.53;;;8.50;70.00;;;;;;5116320;27;20565;-58
2022/03/10 12:03:35;;;;;;;4.18;3.50;;;8.50;68.30;;;;;;5080162;27;20451;-58
2022/03/10 12:06:16;;;;;;;4.03;3.72;;;8.60;60.40;;;;;;5067917;28;20694;-59
2022/03/10 12:09:06;;;;;;;3.85;3.55;;;8.60;59.50;;;;;;5145380;27;20883;-57
2022/03/10 12:11:51;;;;;;;4.22;3.92;;;8.70;59.60;;;;;;5079678;28;20699;-58
2022/03/10 12:14:31;;;;;;;4.72;4.32;;;8.70;57.30;;;;;;5072545;27;20987;-58
2022/03/10 12:17:42;;;;;;;4.35;3.95;;;8.70;57.80;;;;;;5104681;27;20726;-58
2022/03/10 12:20:24;;;;;;;5.03;3.40;;;8.70;56.80;;;;;;5099120;27;20682;-58
2022/03/10 12:23:15;;;;;;;3.50;3.20;;;8.70;54.40;;;;;;5073934;28;20689;-57
2022/03/10 12:25:58;;;;;;;4.63;4.22;;;8.60;54.10;;;;;;5133566;27;20683;-59
2022/03/10 12:28:39;;;;;;;4.13;3.80;;;8.70;55.30;;;;;;5083893;27;20568;-58
2022/03/10 12:31:20;;;;;;;4.05;3.65;;;8.70;57.20;;;;;;5103939;27;20541;-58
2022/03/10 12:34:00;;;;;;;4.70;4.30;;;8.80;56.60;;;;;;5083384;27;20547;-58
2022/03/10 12:36:42;;;;;;;3.70;3.40;;;8.80;55.70;;;;;;5113843;27;20753;-58
2022/03/10 12:39:23;;;;;;;3.72;3.42;;;8.80;55.30;;;;;;5118543;27;20677;-58
2022/03/10 12:42:04;;;;;;;4.45;4.05;;;8.70;56.00;;;;;;5084128;27;20585;-58
2022/03/10 12:44:47;;;;;;;4.55;4.15;;;8.70;59.30;;;;;;5151283;27;20599;-58
2022/03/10 12:47:30;;;;;;;6.03;4.43;;;8.80;60.10;;;;;;5099726;27;20566;-58
2022/03/10 12:50:09;;;;;;;4.72;4.20;;;8.80;60.90;;;;;;5074451;27;21084;-58
2022/03/10 12:52:49;;;;;;;4.13;3.70;;;8.90;64.10;;;;;;5084650;27;20693;-57
2022/03/10 12:55:29;;;;;;;5.30;4.90;;;8.90;61.80;;;;;;5098083;27;20674;-57
2022/03/10 12:58:08;;;;;;;4.80;4.40;;;9.00;61.10;;;;;;5151803;27;20681;-57
2022/03/10 13:00:48;;;;;;;3.72;3.25;;;9.10;64.20;;;;;;5059641;28;21059;-58
2022/03/10 13:03:28;;;;;;;4.43;4.03;;;9.10;59.20;;;;;;5083737;27;21011;-57
2022/03/10 13:06:12;;;;;;;4.30;3.90;;;9.10;58.80;;;;;;5083156;27;20543;-58
2022/03/10 13:08:53;;;;;;;5.38;4.90;;;9.00;58.50;;;;;;5118507;27;20572;-58
2022/03/10 13:11:37;;;;;;;5.65;5.15;;;9.00;62.50;;;;;;5104117;27;20538;-58
2022/03/10 13:14:18;;;;;;;4.57;4.22;;;9.00;65.00;;;;;;5104812;27;20987;-58
2022/03/10 13:16:57;;;;;;;4.47;4.13;;;9.10;63.10;;;;;;5104084;27;20553;-57
2022/03/10 13:19:41;;;;;;;4.60;4.10;;;9.20;64.70;;;;;;5124085;27;20659;-57
2022/03/10 13:22:20;;;;;;;5.03;4.53;;;9.30;63.20;;;;;;5098825;27;20558;-58
2022/03/10 13:25:00;;;;;;;4.40;4.00;;;9.20;62.70;;;;;;5145267;27;20550;-58
2022/03/10 13:27:39;;;;;;;4.85;4.43;;;9.20;64.40;;;;;;5066462;27;20619;-58
2022/03/10 13:30:22;;;;;;;4.55;4.15;;;9.20;61.00;;;;;;5116245;27;20552;-58
2022/03/10 13:33:04;;;;;;;5.15;4.60;;;9.20;62.10;;;;;;5104608;27;20542;-58
2022/03/10 13:35:45;;;;;;;7.45;4.47;;;9.10;64.70;;;;;;5078981;28;20674;-57
2022/03/10 13:38:28;;;;;;;4.82;4.43;;;9.10;63.50;;;;;;5063855;27;21195;-57
2022/03/10 13:41:08;;;;;;;5.22;4.75;;;9.10;62.40;;;;;;5082532;27;20567;-57
2022/03/10 13:43:48;;;;;;;5.70;5.30;;;9.10;63.50;;;;;;5061745;28;20690;-57
2022/03/10 13:46:33;;;;;;;6.22;5.22;;;9.20;64.10;;;;;;5079975;27;20692;-57
2022/03/10 13:49:21;;;;;;;6.25;4.70;;;9.20;66.70;;;;;;5097445;27;20600;-57
2022/03/10 13:52:00;;;;;;;5.55;5.07;;;9.20;65.20;;;;;;5081911;27;20543;-58
2022/03/10 13:54:40;;;;;;;5.85;5.28;;;9.20;65.00;;;;;;5082616;27;21076;-58
2022/03/10 13:57:21;;;;;;;5.25;4.75;;;9.20;69.10;;;;;;5077260;28;20682;-58
2022/03/10 14:00:05;;;;;;;5.35;4.85;;;9.20;67.10;;;;;;5082766;28;20540;-58
2022/03/10 14:02:52;;;;;;;5.65;4.70;;;9.20;67.90;;;;;;5104002;27;21025;-58
2022/03/10 14:05:41;;;;;;;5.53;5.03;;;9.20;69.10;;;;;;5102923;27;20557;-58
2022/03/10 14:08:22;;;;;;;5.15;4.65;;;9.20;67.80;;;;;;5125968;27;20552;-58
2022/03/10 14:11:08;;;;;;;5.30;4.47;;;9.20;67.80;;;;;;5104342;27;20541;-58